Time;durP1;ratioP1;P1;durP2;ratioP2;P2;SDS_P1;SDS_P2;PMS_P1;PMS_P2;Temp;Humidity;BMP_temperature;BMP_pressure;BME280_temperature;BME280_humidity;BME280_pressure;Samples;Min_cycle;Max_cycle;Signal;HPM_P1;HPM_P2
2022/01/21 00:00:20;;;;;;;;;;;;;;;0.07;83.19;101689.78;4979179;28;1465;-86
2022/01/21 00:02:46;;;;;;;;;;;;;;;0.06;83.16;101689.97;4979467;28;1894;-86
2022/01/21 00:05:11;;;;;;;;;;;;;;;0.07;83.15;101695.16;4996384;28;1758;-86
2022/01/21 00:07:37;;;;;;;;;;;;;;;0.12;83.03;101690.06;4978269;28;1700;-86
2022/01/21 00:10:03;;;;;;;;;;;;;;;0.15;82.98;101691.56;4979039;28;1523;-86
2022/01/21 00:12:30;;;;;;;;;;;;;;;0.12;83.05;101697.28;4978820;28;1589;-86
2022/01/21 00:14:55;;;;;;;;;;;;;;;0.15;83.20;101697.78;4981830;28;1648;-86
2022/01/21 00:17:22;;;;;;;;;;;;;;;0.13;83.06;101696.28;4979114;28;1747;-87
2022/01/21 00:19:51;;;;;;;;;;;;;;;0.11;83.03;101696.44;4979117;28;1248;-87
2022/01/21 00:30:28;;;;;;;;;;;;;;;0.09;82.87;101706.56;4995251;28;1516;-87
2022/01/21 00:32:53;;;;;;;;;;;;;;;0.10;82.91;101702.00;4978567;28;1715;-86
2022/01/21 00:35:19;;;;;;;;;;;;;;;0.10;82.88;101712.78;4978642;28;1691;-86
2022/01/21 00:37:45;;;;;;;;;;;;;;;0.10;83.09;101708.25;4996139;28;1742;-87
2022/01/21 00:40:13;;;;;;;;;;;;;;;0.10;82.93;101702.84;4978422;28;1751;-87
2022/01/21 00:45:06;;;;;;;;;;;;;;;0.11;83.12;101719.84;4996654;28;2071;-87
2022/01/21 00:47:32;;;;;;;;;;;;;;;0.12;83.05;101727.75;4978624;28;1356;-87
2022/01/21 00:49:57;;;;;;;;;;;;;;;0.14;82.88;101739.19;4978469;28;1350;-87
2022/01/21 00:52:22;;;;;;;;;;;;;;;0.14;82.84;101738.34;4978441;28;1285;-87
2022/01/21 00:54:47;;;;;;;;;;;;;;;0.13;83.07;101739.34;4995708;28;1767;-85
2022/01/21 00:57:12;;;;;;;;;;;;;;;0.17;82.94;101762.22;4978376;28;1700;-85
2022/01/21 00:59:38;;;;;;;;;;;;;;;0.19;82.86;101750.22;4995709;28;1710;-86
2022/01/21 01:02:04;;;;;;;;;;;;;;;0.23;82.88;101745.31;4995577;28;1730;-85
2022/01/21 01:04:29;;;;;;;;;;;;;;;0.21;82.96;101744.66;4978294;28;1898;-85
2022/01/21 01:06:54;;;;;;;;;;;;;;;0.21;83.11;101747.34;4995633;28;1738;-84
2022/01/21 01:09:19;;;;;;;;;;;;;;;0.25;82.95;101744.13;4977875;28;1739;-85
2022/01/21 01:12:07;;;;;;;;;;;;;;;0.26;83.04;101745.78;4978031;28;1687;-85
2022/01/21 01:20:03;;;;;;;;;;;;;;;0.16;83.28;101734.44;4995642;28;1921;-85
2022/01/21 01:28:01;;;;;;;;;;;;;;;0.16;83.02;101736.31;4995720;28;1237;-85
2022/01/21 01:30:27;;;;;;;;;;;;;;;0.14;83.11;101744.56;4995257;28;1461;-85
2022/01/21 01:32:58;;;;;;;;;;;;;;;0.15;83.21;101735.47;4977719;28;1236;-85
2022/01/21 01:35:25;;;;;;;;;;;;;;;0.13;83.07;101733.97;4977699;28;1697;-85
2022/01/21 01:38:15;;;;;;;;;;;;;;;0.12;82.92;101729.59;4977731;28;1771;-85
2022/01/21 01:40:46;;;;;;;;;;;;;;;0.11;83.04;101726.06;4977959;28;1339;-84
2022/01/21 01:50:54;;;;;;;;;;;;;;;0.14;83.24;101731.09;4995099;28;1746;-84
2022/01/21 01:53:22;;;;;;;;;;;;;;;0.20;83.28;101726.84;4994661;28;993;-85
2022/01/21 01:55:47;;;;;;;;;;;;;;;0.20;83.19;101721.44;4980342;28;1700;-85
2022/01/21 01:58:14;;;;;;;;;;;;;;;0.21;83.26;101720.44;4994460;28;1814;-85
2022/01/21 02:00:40;;;;;;;;;;;;;;;0.24;83.14;101718.22;4977400;28;1810;-85
2022/01/21 02:03:06;;;;;;;;;;;;;;;0.26;83.20;101718.84;4976980;28;1903;-85
2022/01/21 02:05:32;;;;;;;;;;;;;;;0.26;83.19;101724.22;4994589;28;1493;-85
2022/01/21 02:07:57;;;;;;;;;;;;;;;0.28;83.22;101714.13;4977262;28;1763;-85
2022/01/21 02:10:22;;;;;;;;;;;;;;;0.28;83.29;101706.03;4994485;28;1504;-85
2022/01/21 02:12:48;;;;;;;;;;;;;;;0.30;83.33;101708.56;4976915;28;1632;-85
2022/01/21 02:15:13;;;;;;;;;;;;;;;0.29;83.54;101702.34;4994662;28;819;-85
2022/01/21 02:22:49;;;;;;;;;;;;;;;0.23;83.64;101726.47;4975324;28;1957;-84
2022/01/21 02:25:18;;;;;;;;;;;;;;;0.21;83.74;101721.25;4993838;28;1806;-85
2022/01/21 02:27:45;;;;;;;;;;;;;;;0.21;83.63;101723.13;4976585;28;1453;-85
2022/01/21 02:30:18;;;;;;;;;;;;;;;0.21;83.86;101723.13;4976779;28;1967;-84
2022/01/21 02:32:43;;;;;;;;;;;;;;;0.19;83.79;101711.69;4977166;28;1217;-85
2022/01/21 02:35:08;;;;;;;;;;;;;;;0.16;83.91;101721.00;4976709;28;1896;-84
2022/01/21 02:37:33;;;;;;;;;;;;;;;0.14;83.90;101739.19;4976775;28;1291;-83
2022/01/21 02:39:58;;;;;;;;;;;;;;;0.11;83.99;101720.69;4994067;28;1924;-84
2022/01/21 02:42:23;;;;;;;;;;;;;;;0.09;84.03;101724.56;4993641;28;1912;-85
2022/01/21 02:44:49;;;;;;;;;;;;;;;0.06;84.03;101714.19;4976723;28;1898;-85
2022/01/21 02:47:14;;;;;;;;;;;;;;;0.04;84.22;101729.66;4976658;28;1289;-85
2022/01/21 02:49:39;;;;;;;;;;;;;;;0.05;84.33;101726.81;4976121;28;1932;-85
2022/01/21 02:52:06;;;;;;;;;;;;;;;0.08;84.32;101725.63;4976031;28;1903;-84
2022/01/21 02:54:34;;;;;;;;;;;;;;;0.12;84.42;101732.28;4976741;28;1844;-85
2022/01/21 02:56:59;;;;;;;;;;;;;;;0.14;84.22;101731.09;4976436;28;1404;-84
2022/01/21 02:59:24;;;;;;;;;;;;;;;0.13;84.08;101717.81;4976212;28;1935;-84
2022/01/21 03:01:50;;;;;;;;;;;;;;;0.12;84.33;101716.97;4976413;28;1963;-84
2022/01/21 03:04:24;;;;;;;;;;;;;;;0.15;84.19;101723.84;4976451;28;1891;-85
2022/01/21 03:06:49;;;;;;;;;;;;;;;0.14;84.47;101725.72;4958842;28;1344;-85
2022/01/21 03:09:14;;;;;;;;;;;;;;;0.17;84.62;101724.53;4970788;28;1741;-84
2022/01/21 03:11:39;;;;;;;;;;;;;;;0.21;84.51;101732.03;4976237;28;1629;-84
2022/01/21 03:14:05;;;;;;;;;;;;;;;0.21;84.31;101726.66;4979418;28;1201;-84
2022/01/21 03:16:30;;;;;;;;;;;;;;;0.23;84.34;101729.16;4975910;28;1587;-84
2022/01/21 03:18:55;;;;;;;;;;;;;;;0.25;84.50;101730.66;4976640;28;1293;-85
2022/01/21 03:21:21;;;;;;;;;;;;;;;0.23;84.42;101737.25;4976419;28;1731;-84
2022/01/21 03:23:47;;;;;;;;;;;;;;;0.22;84.31;101739.09;4976734;28;1910;-84
2022/01/21 03:26:14;;;;;;;;;;;;;;;0.18;84.38;101732.38;4977333;28;1403;-85
2022/01/21 03:28:40;;;;;;;;;;;;;;;0.17;84.37;101736.09;4993956;28;1766;-85
2022/01/21 03:31:05;;;;;;;;;;;;;;;0.16;84.53;101739.84;4977520;28;1577;-84
2022/01/21 03:33:30;;;;;;;;;;;;;;;0.16;84.79;101739.84;4993669;28;1037;-85
2022/01/21 03:35:55;;;;;;;;;;;;;;;0.17;84.65;101738.78;4976144;28;1803;-84
2022/01/21 03:38:24;;;;;;;;;;;;;;;0.16;84.70;101739.00;4976582;28;1324;-84
2022/01/21 03:40:49;;;;;;;;;;;;;;;0.17;84.81;101740.69;4976088;28;1364;-84
2022/01/21 03:43:15;;;;;;;;;;;;;;;0.16;84.73;101745.22;4995912;28;1953;-85
2022/01/21 03:45:40;;;;;;;;;;;;;;;0.18;84.90;101745.00;4997359;28;1480;-84
2022/01/21 03:48:05;;;;;;;;;;;;;;;0.19;84.91;101755.59;4980278;28;1553;-84
2022/01/21 03:50:32;;;;;;;;;;;;;;;0.20;84.91;101769.91;4997196;28;1293;-85
2022/01/21 03:52:58;;;;;;;;;;;;;;;0.21;84.75;101775.13;4979751;28;1303;-84
2022/01/21 03:55:23;;;;;;;;;;;;;;;0.18;84.77;101774.63;4980770;28;1563;-84
2022/01/21 03:57:49;;;;;;;;;;;;;;;0.19;84.84;101771.75;4988363;28;1489;-84
2022/01/21 04:00:16;;;;;;;;;;;;;;;0.18;84.78;101764.69;5019024;28;1421;-84
2022/01/21 04:02:42;;;;;;;;;;;;;;;0.19;84.77;101755.59;5002210;28;1377;-84
2022/01/21 04:05:07;;;;;;;;;;;;;;;0.17;84.88;101756.81;5000048;28;1946;-84
2022/01/21 04:07:32;;;;;;;;;;;;;;;0.14;84.85;101759.88;4996864;28;1319;-84
2022/01/21 04:09:57;;;;;;;;;;;;;;;0.15;84.95;101759.69;4997015;28;851;-84
2022/01/21 04:12:22;;;;;;;;;;;;;;;0.18;84.82;101750.41;4979680;28;1022;-84
2022/01/21 04:14:48;;;;;;;;;;;;;;;0.23;84.65;101750.72;4996534;28;1318;-84
2022/01/21 04:17:13;;;;;;;;;;;;;;;0.21;84.74;101745.50;4979333;28;827;-84
2022/01/21 04:19:39;;;;;;;;;;;;;;;0.20;84.88;101746.50;5036140;23;2002;-86
2022/01/21 04:22:04;;;;;;;;;;;;;;;0.21;84.98;101750.03;4954513;29;1367;-85
2022/01/21 04:24:29;;;;;;;;;;;;;;;0.23;84.87;101748.00;4957384;29;1962;-86
2022/01/21 04:26:55;;;;;;;;;;;;;;;0.25;84.91;101746.81;4959792;29;827;-86
2022/01/21 04:29:20;;;;;;;;;;;;;;;0.27;84.88;101742.06;4961502;28;1453;-86
2022/01/21 04:31:45;;;;;;;;;;;;;;;0.23;84.85;101740.78;4978867;28;1292;-87
2022/01/21 04:34:10;;;;;;;;;;;;;;;0.26;84.94;101756.53;4963592;28;1217;-87
2022/01/21 04:36:36;;;;;;;;;;;;;;;0.27;84.92;101760.91;4941885;29;1037;-86
2022/01/21 04:39:04;;;;;;;;;;;;;;;0.26;84.90;101758.41;4959048;29;1332;-86
2022/01/21 04:47:17;;;;;;;;;;;;;;;0.24;84.90;101755.06;4959582;29;1883;-85
2022/01/21 04:49:49;;;;;;;;;;;;;;;0.23;84.90;101773.09;4957853;28;1644;-87
2022/01/21 04:52:15;;;;;;;;;;;;;;;0.26;84.96;101764.63;4942212;29;1215;-86
2022/01/21 04:54:40;;;;;;;;;;;;;;;0.28;84.84;101756.38;4951088;28;1286;-84
2022/01/21 04:57:06;;;;;;;;;;;;;;;0.29;84.81;101756.19;4961687;28;749;-86
2022/01/21 04:59:32;;;;;;;;;;;;;;;0.27;84.99;101763.59;4972509;28;1438;-85
2022/01/21 05:01:57;;;;;;;;;;;;;;;0.29;84.99;101755.34;4985184;28;1588;-86
2022/01/21 05:04:22;;;;;;;;;;;;;;;0.32;84.97;101755.00;4976839;28;1959;-86
2022/01/21 05:06:49;;;;;;;;;;;;;;;0.33;84.73;101759.38;4977972;28;1595;-85
2022/01/21 05:09:16;;;;;;;;;;;;;;;0.34;84.84;101769.13;4949178;28;1510;-86
2022/01/21 05:11:42;;;;;;;;;;;;;;;0.33;84.72;101768.28;4941270;29;1214;-85
2022/01/21 05:14:18;;;;;;;;;;;;;;;0.32;84.72;101761.22;4961124;28;1392;-86
2022/01/21 05:16:49;;;;;;;;;;;;;;;0.33;84.91;101764.75;4961544;28;1268;-85
2022/01/21 05:19:16;;;;;;;;;;;;;;;0.35;84.89;101768.09;4978007;28;1710;-87
2022/01/21 05:21:42;;;;;;;;;;;;;;;0.34;84.74;101769.94;4988643;28;1603;-86
2022/01/21 05:24:07;;;;;;;;;;;;;;;0.35;84.81;101755.44;4964490;28;1907;-86
2022/01/21 05:26:40;;;;;;;;;;;;;;;0.34;84.87;101753.78;4976375;28;1331;-87
2022/01/21 05:29:07;;;;;;;;;;;;;;;0.36;84.87;101746.34;4964813;28;1434;-86
2022/01/21 05:31:32;;;;;;;;;;;;;;;0.35;84.92;101739.28;4969453;28;1301;-86
2022/01/21 05:33:58;;;;;;;;;;;;;;;0.32;84.92;101736.16;4959244;28;1441;-86
2022/01/21 05:36:23;;;;;;;;;;;;;;;0.27;85.07;101742.06;4959633;28;1238;-86
2022/01/21 05:38:48;;;;;;;;;;;;;;;0.22;85.08;101738.25;4959530;28;1241;-86
2022/01/21 05:41:14;;;;;;;;;;;;;;;0.19;85.06;101728.69;4975913;28;1402;-85
2022/01/21 05:43:45;;;;;;;;;;;;;;;0.19;85.26;101744.84;4959149;28;1954;-85
2022/01/21 05:46:25;;;;;;;;;;;;;;;0.23;85.27;101739.94;4962226;28;1521;-86
2022/01/21 05:48:50;;;;;;;;;;;;;;;0.27;85.23;101742.06;4972526;28;1591;-86
2022/01/21 05:51:17;;;;;;;;;;;;;;;0.31;85.17;101753.31;4960051;28;1266;-85
2022/01/21 05:53:42;;;;;;;;;;;;;;;0.34;85.18;101750.28;4960131;28;1589;-86
2022/01/21 05:56:07;;;;;;;;;;;;;;;0.34;85.04;101759.16;4977223;28;784;-86
2022/01/21 05:58:32;;;;;;;;;;;;;;;0.35;85.13;101750.06;4963783;28;1521;-85
2022/01/21 06:00:57;;;;;;;;;;;;;;;0.42;85.26;101760.97;4980374;28;1668;-83
2022/01/21 06:03:23;;;;;;;;;;;;;;;0.48;85.23;101764.78;4977928;28;1918;-85
2022/01/21 06:05:48;;;;;;;;;;;;;;;0.50;85.33;101760.06;4961738;28;1477;-84
2022/01/21 06:08:13;;;;;;;;;;;;;;;0.48;85.33;101754.84;4963300;28;1553;-84
2022/01/21 06:10:38;;;;;;;;;;;;;;;0.49;85.45;101752.97;4962720;28;1224;-85
2022/01/21 06:13:03;;;;;;;;;;;;;;;0.45;85.22;101757.06;4980587;28;1552;-84
2022/01/21 06:15:29;;;;;;;;;;;;;;;0.50;85.47;101757.34;4973051;28;1588;-85
2022/01/21 06:17:54;;;;;;;;;;;;;;;0.54;85.32;101755.94;4962274;28;1414;-85
2022/01/21 06:20:19;;;;;;;;;;;;;;;0.53;85.40;101754.28;4961259;28;1250;-85
2022/01/21 06:22:44;;;;;;;;;;;;;;;0.54;85.19;101750.56;4963623;28;1510;-85
2022/01/21 06:25:09;;;;;;;;;;;;;;;0.56;85.36;101757.44;4970286;28;1969;-85
2022/01/21 06:27:36;;;;;;;;;;;;;;;0.55;85.32;101763.00;4973331;28;1398;-84
2022/01/21 06:30:02;;;;;;;;;;;;;;;0.54;85.28;101770.25;4978459;28;1525;-85
2022/01/21 06:32:27;;;;;;;;;;;;;;;0.53;85.24;101760.50;4961933;28;1198;-85
2022/01/21 06:34:52;;;;;;;;;;;;;;;0.53;85.23;101773.13;4969629;28;1336;-87
2022/01/21 06:37:18;;;;;;;;;;;;;;;0.51;85.27;101775.19;4975057;28;1498;-87
2022/01/21 06:39:43;;;;;;;;;;;;;;;0.47;85.15;101779.25;4974056;28;1498;-85
2022/01/21 06:42:08;;;;;;;;;;;;;;;0.48;85.21;101784.47;4975622;28;1596;-87
2022/01/21 06:44:33;;;;;;;;;;;;;;;0.47;85.22;101790.88;4977852;28;1939;-85
2022/01/21 06:47:00;;;;;;;;;;;;;;;0.49;85.37;101785.31;4977585;28;1711;-86
2022/01/21 06:49:25;;;;;;;;;;;;;;;0.48;85.32;101789.00;4959501;28;1556;-86
2022/01/21 06:51:50;;;;;;;;;;;;;;;0.47;85.33;101779.25;4955532;29;1384;-86
2022/01/21 06:54:15;;;;;;;;;;;;;;;0.45;85.25;101782.13;4947969;28;1498;-85
2022/01/21 06:56:40;;;;;;;;;;;;;;;0.46;85.18;101777.59;4977273;28;1625;-86
2022/01/21 06:59:05;;;;;;;;;;;;;;;0.46;85.30;101780.28;4980888;28;1603;-85
2022/01/21 07:01:31;;;;;;;;;;;;;;;0.47;85.50;101782.78;4975542;28;1624;-85
2022/01/21 07:03:56;;;;;;;;;;;;;;;0.46;85.47;101805.34;4976782;28;1977;-86
2022/01/21 07:06:21;;;;;;;;;;;;;;;0.46;85.40;101805.34;4958571;28;1300;-86
2022/01/21 07:08:47;;;;;;;;;;;;;;;0.45;85.55;101792.91;4976358;28;1477;-86
2022/01/21 07:11:12;;;;;;;;;;;;;;;0.46;85.46;101799.97;4977261;28;1318;-85
2022/01/21 07:13:37;;;;;;;;;;;;;;;0.47;85.53;101796.25;4947431;28;1411;-85
2022/01/21 07:16:02;;;;;;;;;;;;;;;0.48;85.29;101800.63;4967946;28;1453;-85
2022/01/21 07:18:27;;;;;;;;;;;;;;;0.46;85.56;101805.34;4983618;28;1289;-85
2022/01/21 07:20:53;;;;;;;;;;;;;;;0.48;85.75;101807.88;4976058;28;1225;-85
2022/01/21 07:23:18;;;;;;;;;;;;;;;0.46;85.81;101818.81;4965923;28;1899;-85
2022/01/21 07:25:43;;;;;;;;;;;;;;;0.50;85.92;101805.84;4964713;28;1242;-86
2022/01/21 07:28:09;;;;;;;;;;;;;;;0.50;85.96;101803.16;4962402;28;1599;-84
2022/01/21 07:30:34;;;;;;;;;;;;;;;0.49;85.95;101809.56;4944236;29;1414;-84
2022/01/21 07:32:59;;;;;;;;;;;;;;;0.49;85.96;101806.84;4943508;29;1223;-85
2022/01/21 07:35:24;;;;;;;;;;;;;;;0.53;86.25;101794.69;4944588;29;1223;-86
2022/01/21 07:37:49;;;;;;;;;;;;;;;0.54;86.10;101790.97;4978038;28;1604;-86
2022/01/21 07:40:14;;;;;;;;;;;;;;;0.55;86.30;101800.72;4969212;28;1371;-86
2022/01/21 07:42:40;;;;;;;;;;;;;;;0.56;86.51;101794.31;4962822;28;1324;-86
2022/01/21 07:45:05;;;;;;;;;;;;;;;0.56;86.53;101792.47;4960208;28;1973;-85
2022/01/21 07:47:30;;;;;;;;;;;;;;;0.57;86.74;101804.94;4952110;28;1763;-86
2022/01/21 07:49:55;;;;;;;;;;;;;;;0.58;86.75;101803.91;4980306;28;1443;-85
2022/01/21 07:52:20;;;;;;;;;;;;;;;0.60;86.72;101793.75;4959432;29;1472;-85
2022/01/21 07:54:46;;;;;;;;;;;;;;;0.59;87.11;101802.06;4952690;28;1452;-86
2022/01/21 07:57:11;;;;;;;;;;;;;;;0.59;87.05;101808.28;4966318;28;1277;-85
2022/01/21 07:59:37;;;;;;;;;;;;;;;0.54;87.31;101812.53;4976314;28;1348;-86
2022/01/21 08:02:03;;;;;;;;;;;;;;;0.51;87.48;101813.72;4979785;28;1445;-85
2022/01/21 08:04:28;;;;;;;;;;;;;;;0.54;87.67;101815.22;4981074;28;1898;-86
2022/01/21 08:06:53;;;;;;;;;;;;;;;0.57;87.73;101822.94;4980939;28;1549;-86
2022/01/21 08:09:23;;;;;;;;;;;;;;;0.57;87.79;101812.16;4952596;29;1378;-86
2022/01/21 08:11:49;;;;;;;;;;;;;;;0.58;87.92;101820.06;4943745;29;1284;-85
2022/01/21 08:14:14;;;;;;;;;;;;;;;0.59;87.87;101818.22;4944278;29;1266;-85
2022/01/21 08:16:39;;;;;;;;;;;;;;;0.57;88.10;101828.34;4944867;29;978;-86
2022/01/21 08:19:05;;;;;;;;;;;;;;;0.56;88.14;101826.66;4943417;29;1298;-85
2022/01/21 08:21:30;;;;;;;;;;;;;;;0.55;88.25;101824.97;4960098;29;902;-86
2022/01/21 08:23:56;;;;;;;;;;;;;;;0.58;88.36;101820.06;4943764;29;1875;-86
2022/01/21 08:26:23;;;;;;;;;;;;;;;0.61;88.36;101814.28;4944016;29;1313;-86
2022/01/21 08:28:49;;;;;;;;;;;;;;;0.60;88.49;101820.69;4943068;29;1335;-86
2022/01/21 08:31:14;;;;;;;;;;;;;;;0.59;88.47;101824.44;4943880;29;1202;-86
2022/01/21 08:33:39;;;;;;;;;;;;;;;0.62;88.52;101820.53;4944698;29;1242;-85
2022/01/21 08:36:07;;;;;;;;;;;;;;;0.65;88.56;101830.94;4962116;29;879;-85
2022/01/21 08:38:32;;;;;;;;;;;;;;;0.65;88.54;101821.00;4944424;29;1510;-86
2022/01/21 08:40:57;;;;;;;;;;;;;;;0.63;88.60;101822.19;4961053;29;1199;-86
2022/01/21 08:43:23;;;;;;;;;;;;;;;0.69;88.71;101810.69;4943438;29;1883;-86
2022/01/21 08:45:48;;;;;;;;;;;;;;;0.73;88.74;101823.63;4944827;29;1347;-86
2022/01/21 08:48:13;;;;;;;;;;;;;;;0.77;88.77;101822.22;4946214;29;731;-86
2022/01/21 08:50:38;;;;;;;;;;;;;;;0.78;88.87;101820.38;4946162;29;1178;-86
2022/01/21 08:53:35;;;;;;;;;;;;;;;0.78;88.92;101823.06;4944156;29;1101;-86
2022/01/21 08:55:51;;;;;;;;;;;;;;;0.74;89.00;101829.84;4962859;29;1100;-86
2022/01/21 08:58:17;;;;;;;;;;;;;;;0.71;89.25;101819.44;4943962;29;1178;-85
2022/01/21 09:00:42;;;;;;;;;;;;;;;0.70;89.20;101823.97;4942901;29;1199;-86
2022/01/21 09:03:07;;;;;;;;;;;;;;;0.69;89.27;101819.59;4960256;29;1894;-85
2022/01/21 09:05:32;;;;;;;;;;;;;;;0.68;89.34;101830.59;4960889;29;1021;-86
2022/01/21 09:07:57;;;;;;;;;;;;;;;0.66;89.47;101828.06;4943414;29;1241;-85
2022/01/21 09:10:22;;;;;;;;;;;;;;;0.72;89.48;101829.19;4975825;28;1283;-85
2022/01/21 09:12:48;;;;;;;;;;;;;;;0.78;89.52;101831.13;4950061;28;1223;-85
2022/01/21 09:15:13;;;;;;;;;;;;;;;0.84;89.65;101830.44;4963579;28;1125;-85
2022/01/21 09:17:39;;;;;;;;;;;;;;;0.89;89.36;101827.16;4980958;28;1025;-85
2022/01/21 09:20:05;;;;;;;;;;;;;;;0.89;89.62;101828.00;4962836;28;1230;-85
2022/01/21 09:22:30;;;;;;;;;;;;;;;0.91;89.75;101825.97;4963176;28;1208;-86
2022/01/21 09:24:55;;;;;;;;;;;;;;;0.95;89.75;101831.81;4963482;28;1903;-86
2022/01/21 09:27:20;;;;;;;;;;;;;;;0.97;89.81;101844.09;4963884;28;1215;-86
2022/01/21 09:29:45;;;;;;;;;;;;;;;0.99;89.92;101841.22;4963919;28;1232;-86
2022/01/21 09:32:11;;;;;;;;;;;;;;;0.95;90.01;101845.28;4963795;28;986;-86
2022/01/21 09:34:36;;;;;;;;;;;;;;;0.96;90.07;101842.41;4963389;28;1251;-86
2022/01/21 09:37:01;;;;;;;;;;;;;;;0.93;90.12;101842.81;4963918;28;1213;-86
2022/01/21 09:39:27;;;;;;;;;;;;;;;0.91;90.34;101844.84;4964102;28;1539;-86
2022/01/21 09:41:55;;;;;;;;;;;;;;;0.90;90.31;101843.16;4963239;28;1217;-86
2022/01/21 09:44:21;;;;;;;;;;;;;;;0.93;90.44;101847.34;4965269;28;1959;-85
2022/01/21 09:46:49;;;;;;;;;;;;;;;0.98;90.54;101851.16;4965221;28;1312;-86
2022/01/21 09:49:27;;;;;;;;;;;;;;;0.98;90.54;101855.72;4989242;28;1175;-86
2022/01/21 09:52:00;;;;;;;;;;;;;;;0.99;90.74;101852.84;4991206;28;954;-85
2022/01/21 09:54:27;;;;;;;;;;;;;;;1.00;90.67;101851.81;4965863;28;1238;-86
2022/01/21 09:56:54;;;;;;;;;;;;;;;1.04;90.84;101842.31;4963886;28;1356;-86
2022/01/21 09:59:19;;;;;;;;;;;;;;;1.11;90.75;101850.50;4963443;28;1294;-85
2022/01/21 10:01:48;;;;;;;;;;;;;;;1.19;90.75;101858.53;4981705;28;1080;-85
2022/01/21 10:04:13;;;;;;;;;;;;;;;1.26;90.71;101866.72;4970998;28;1887;-85
2022/01/21 10:06:38;;;;;;;;;;;;;;;1.25;90.80;101865.03;4990781;28;1075;-85
2022/01/21 10:09:04;;;;;;;;;;;;;;;1.21;90.88;101861.00;4973977;28;1212;-85
2022/01/21 10:11:29;;;;;;;;;;;;;;;1.21;91.12;101858.31;4963079;28;1313;-86
2022/01/21 10:13:55;;;;;;;;;;;;;;;1.20;91.09;101846.69;4960749;28;1293;-86
2022/01/21 10:16:20;;;;;;;;;;;;;;;1.21;91.20;101852.94;4962589;28;1265;-86
2022/01/21 10:19:02;;;;;;;;;;;;;;;1.25;91.44;101849.69;4962767;28;1229;-85
2022/01/21 10:21:29;;;;;;;;;;;;;;;1.24;91.44;101852.56;4979264;28;953;-86
2022/01/21 10:24:02;;;;;;;;;;;;;;;1.31;91.62;101854.31;4980173;23;2114;-86
2022/01/21 10:26:27;;;;;;;;;;;;;;;1.39;91.32;101858.78;4981127;28;1166;-86
2022/01/21 10:28:54;;;;;;;;;;;;;;;1.46;91.30;101844.34;4981468;28;906;-86
2022/01/21 10:31:19;;;;;;;;;;;;;;;1.51;91.04;101839.25;4980644;28;1186;-87
2022/01/21 10:33:49;;;;;;;;;;;;;;;1.51;91.06;101839.25;4976914;28;1298;-86
2022/01/21 10:36:27;;;;;;;;;;;;;;;1.59;91.10;101856.34;4962905;29;1401;-87
2022/01/21 10:38:58;;;;;;;;;;;;;;;1.79;90.44;101850.16;4962754;29;1197;-87
2022/01/21 10:41:28;;;;;;;;;;;;;;;1.92;90.18;101851.34;4963490;29;1313;-87
2022/01/21 10:44:09;;;;;;;;;;;;;;;1.97;90.20;101854.28;4964366;28;1950;-87
2022/01/21 10:46:34;;;;;;;;;;;;;;;1.91;90.15;101866.72;4962968;29;1239;-87
2022/01/21 10:49:04;;;;;;;;;;;;;;;1.82;90.10;101857.88;4965358;29;1334;-85
2022/01/21 10:51:32;;;;;;;;;;;;;;;1.83;90.36;101856.88;4969903;29;1210;-86
2022/01/21 10:53:58;;;;;;;;;;;;;;;1.83;90.26;101856.03;4964232;28;1341;-85
2022/01/21 10:56:25;;;;;;;;;;;;;;;1.76;89.94;101852.41;4964532;29;1311;-84
2022/01/21 10:58:52;;;;;;;;;;;;;;;1.79;89.99;101847.44;4969403;29;1306;-85
2022/01/21 11:01:21;;;;;;;;;;;;;;;1.84;90.11;101852.31;4970171;29;1344;-85
2022/01/21 11:04:05;;;;;;;;;;;;;;;2.05;89.33;101843.38;4965939;28;1937;-86
2022/01/21 11:06:43;;;;;;;;;;;;;;;2.16;89.49;101841.00;4956819;29;899;-85
2022/01/21 11:09:12;;;;;;;;;;;;;;;2.14;89.40;101848.47;4955381;29;1284;-85
2022/01/21 11:11:38;;;;;;;;;;;;;;;2.05;89.29;101855.00;4955957;29;1331;-85
2022/01/21 11:14:09;;;;;;;;;;;;;;;2.07;89.30;101841.31;4955472;28;1226;-86
2022/01/21 11:16:34;;;;;;;;;;;;;;;2.16;89.23;101841.00;4955829;29;1276;-86
2022/01/21 11:19:08;;;;;;;;;;;;;;;2.23;88.75;101841.06;4954861;29;1217;-85
2022/01/21 11:21:39;;;;;;;;;;;;;;;2.18;89.26;101838.97;4956267;28;835;-85
2022/01/21 11:24:06;;;;;;;;;;;;;;;2.20;89.22;101836.06;4954765;28;1875;-85
2022/01/21 11:26:31;;;;;;;;;;;;;;;2.21;88.93;101838.56;4956513;28;839;-85
2022/01/21 11:28:56;;;;;;;;;;;;;;;2.21;88.94;101846.66;4955687;29;860;-85
2022/01/21 11:31:22;;;;;;;;;;;;;;;2.21;88.73;101846.66;4954592;29;1351;-86
2022/01/21 11:33:48;;;;;;;;;;;;;;;2.25;88.96;101839.84;4954532;28;1249;-85
2022/01/21 11:36:14;;;;;;;;;;;;;;;2.31;88.48;101845.50;4956149;28;1026;-85
2022/01/21 11:38:40;;;;;;;;;;;;;;;2.30;88.53;101833.84;4954902;29;1264;-85
2022/01/21 11:41:06;;;;;;;;;;;;;;;2.37;88.39;101839.34;4956058;28;1721;-85
2022/01/21 11:43:33;;;;;;;;;;;;;;;2.40;88.50;101833.53;4954387;29;1882;-85
2022/01/21 11:48:52;;;;;;;;;;;;;;;2.38;88.09;101841.88;4956259;29;965;-85
2022/01/21 11:51:18;;;;;;;;;;;;;;;2.38;88.15;101841.88;4954002;28;1209;-85
2022/01/21 11:53:44;;;;;;;;;;;;;;;2.34;88.15;101837.03;4954339;29;1280;-85
2022/01/21 11:56:46;;;;;;;;;;;;;;;2.32;88.42;101842.63;4954711;29;1178;-85
2022/01/21 11:59:11;;;;;;;;;;;;;;;2.32;88.81;101842.63;4924684;29;1215;-85
2022/01/21 12:01:48;;;;;;;;;;;;;;;2.27;88.68;101836.97;4954970;29;1443;-85
2022/01/21 12:04:34;;;;;;;;;;;;;;;2.30;88.76;101833.84;4956215;28;1965;-85
2022/01/21 12:07:00;;;;;;;;;;;;;;;2.35;88.93;101838.69;4947532;29;1175;-86
2022/01/21 12:09:44;;;;;;;;;;;;;;;2.33;89.29;101838.88;4957733;29;1394;-85
2022/01/21 12:12:09;;;;;;;;;;;;;;;2.26;89.43;101833.44;4959091;28;902;-86
2022/01/21 12:14:41;;;;;;;;;;;;;;;2.26;89.84;101838.00;4957293;29;1592;-85
2022/01/21 12:17:19;;;;;;;;;;;;;;;2.32;89.56;101837.22;4957511;29;1221;-85
2022/01/21 12:19:44;;;;;;;;;;;;;;;2.36;89.17;101827.72;4957636;29;1234;-85
2022/01/21 12:22:11;;;;;;;;;;;;;;;2.46;89.23;101833.63;4958032;29;1332;-89
2022/01/21 12:24:51;;;;;;;;;;;;;;;2.59;88.97;101812.09;4945623;29;1952;-88
2022/01/21 12:27:17;;;;;;;;;;;;;;;2.64;88.72;101817.75;4952302;29;1481;-85
2022/01/21 12:29:42;;;;;;;;;;;;;;;2.67;89.11;101816.50;4946988;29;1333;-85
2022/01/21 12:32:16;;;;;;;;;;;;;;;2.70;88.95;101815.28;4951245;29;1458;-86
2022/01/21 12:34:57;;;;;;;;;;;;;;;2.69;88.65;101824.44;4957582;29;1372;-85
2022/01/21 12:37:26;;;;;;;;;;;;;;;2.69;88.76;101811.75;4956289;29;1233;-87
2022/01/21 12:39:51;;;;;;;;;;;;;;;2.67;88.46;101803.84;4959965;29;1414;-87
2022/01/21 12:42:25;;;;;;;;;;;;;;;2.72;88.22;101799.72;4958605;29;1304;-86
2022/01/21 12:45:05;;;;;;;;;;;;;;;2.77;88.19;101797.25;4942778;29;1989;-86
2022/01/21 12:47:38;;;;;;;;;;;;;;;2.80;88.35;101802.28;4942655;29;1218;-86
2022/01/21 12:50:23;;;;;;;;;;;;;;;2.83;87.84;101789.19;4942464;29;1290;-86
2022/01/21 12:53:25;;;;;;;;;;;;;;;2.85;87.75;101792.53;4953928;29;1324;-85
2022/01/21 12:55:55;;;;;;;;;;;;;;;2.89;88.11;101784.88;4938296;29;1049;-86
2022/01/21 12:58:22;;;;;;;;;;;;;;;2.91;88.07;101802.53;4950565;29;1525;-85
2022/01/21 13:00:47;;;;;;;;;;;;;;;2.87;87.83;101805.84;4957345;29;1430;-86
2022/01/21 13:03:18;;;;;;;;;;;;;;;2.87;87.63;101808.56;4957097;29;1894;-86
2022/01/21 13:05:50;;;;;;;;;;;;;;;2.86;87.62;101799.59;4959208;29;1349;-85
2022/01/21 13:08:28;;;;;;;;;;;;;;;2.83;87.71;101800.00;4949074;29;1353;-86
2022/01/21 13:10:53;;;;;;;;;;;;;;;2.86;87.50;101801.47;4956254;29;1588;-86
2022/01/21 13:13:47;;;;;;;;;;;;;;;2.90;88.08;101795.47;4958086;29;1178;-87
2022/01/21 13:16:22;;;;;;;;;;;;;;;2.93;87.96;101791.53;4958855;29;1277;-86
2022/01/21 13:18:47;;;;;;;;;;;;;;;2.93;87.82;101794.22;4958065;29;1421;-85
2022/01/21 13:21:13;;;;;;;;;;;;;;;2.94;87.38;101791.34;4955364;29;1381;-87
2022/01/21 13:23:45;;;;;;;;;;;;;;;2.95;87.71;101790.31;4955584;29;1945;-85
2022/01/21 13:26:15;;;;;;;;;;;;;;;2.99;87.79;101783.44;4945709;29;1383;-84
2022/01/21 13:28:53;;;;;;;;;;;;;;;3.03;87.40;101773.09;4937168;29;1383;-85
2022/01/21 13:31:19;;;;;;;;;;;;;;;3.01;87.35;101772.44;4953160;29;1320;-85
2022/01/21 13:33:44;;;;;;;;;;;;;;;3.00;87.25;101777.00;4955739;29;1328;-85
2022/01/21 13:36:10;;;;;;;;;;;;;;;3.03;87.45;101782.03;4957440;29;1576;-85
2022/01/21 13:38:36;;;;;;;;;;;;;;;3.09;87.62;101772.28;4957423;28;1551;-85
2022/01/21 13:41:02;;;;;;;;;;;;;;;3.11;87.35;101772.91;4955640;29;1517;-85